sensor_id;sensor_type;location;lat;lon;timestamp;temperature;humidity
76293;DHT22;67256;51.154;4.164;2023-03-01T00:01:59;4.50;51.30
76293;DHT22;67256;51.154;4.164;2023-03-01T00:04:25;4.50;51.40
76293;DHT22;67256;51.154;4.164;2023-03-01T00:06:52;4.40;51.20
76293;DHT22;67256;51.154;4.164;2023-03-01T00:09:18;4.40;51.50
76293;DHT22;67256;51.154;4.164;2023-03-01T00:11:44;4.30;51.20
76293;DHT22;67256;51.154;4.164;2023-03-01T00:14:10;4.30;51.50
76293;DHT22;67256;51.154;4.164;2023-03-01T00:16:39;4.30;51.90
76293;DHT22;67256;51.154;4.164;2023-03-01T00:19:05;4.30;52.10
76293;DHT22;67256;51.154;4.164;2023-03-01T00:21:31;4.20;52.20
76293;DHT22;67256;51.154;4.164;2023-03-01T00:23:58;4.20;52.40
76293;DHT22;67256;51.154;4.164;2023-03-01T00:26:25;4.20;52.10
76293;DHT22;67256;51.154;4.164;2023-03-01T00:28:51;4.20;52.20
76293;DHT22;67256;51.154;4.164;2023-03-01T00:31:20;4.20;52.80
76293;DHT22;67256;51.154;4.164;2023-03-01T00:33:46;4.20;53.00
76293;DHT22;67256;51.154;4.164;2023-03-01T00:36:15;4.20;52.90
76293;DHT22;67256;51.154;4.164;2023-03-01T00:38:45;4.20;53.10
76293;DHT22;67256;51.154;4.164;2023-03-01T00:41:16;4.20;53.00
76293;DHT22;67256;51.154;4.164;2023-03-01T00:43:44;4.20;53.20
76293;DHT22;67256;51.154;4.164;2023-03-01T00:46:14;4.20;53.20
76293;DHT22;67256;51.154;4.164;2023-03-01T00:48:41;4.20;53.40
76293;DHT22;67256;51.154;4.164;2023-03-01T00:51:08;4.10;53.50
76293;DHT22;67256;51.154;4.164;2023-03-01T00:53:35;4.10;53.70
76293;DHT22;67256;51.154;4.164;2023-03-01T00:56:01;4.00;54.00
76293;DHT22;67256;51.154;4.164;2023-03-01T00:58:27;4.00;54.10
76293;DHT22;67256;51.154;4.164;2023-03-01T01:00:53;4.00;54.20
76293;DHT22;67256;51.154;4.164;2023-03-01T01:03:19;4.00;54.10
76293;DHT22;67256;51.154;4.164;2023-03-01T01:05:45;4.10;54.10
76293;DHT22;67256;51.154;4.164;2023-03-01T01:08:11;4.10;54.20
76293;DHT22;67256;51.154;4.164;2023-03-01T01:10:37;3.80;54.90
76293;DHT22;67256;51.154;4.164;2023-03-01T01:13:03;3.80;55.10
76293;DHT22;67256;51.154;4.164;2023-03-01T01:15:33;3.90;54.60
76293;DHT22;67256;51.154;4.164;2023-03-01T01:18:00;4.00;54.30
76293;DHT22;67256;51.154;4.164;2023-03-01T01:20:26;4.00;53.80
76293;DHT22;67256;51.154;4.164;2023-03-01T01:22:53;4.00;54.00
76293;DHT22;67256;51.154;4.164;2023-03-01T01:25:19;4.00;54.00
76293;DHT22;67256;51.154;4.164;2023-03-01T01:27:45;3.90;54.40
76293;DHT22;67256;51.154;4.164;2023-03-01T01:30:11;3.80;55.50
76293;DHT22;67256;51.154;4.164;2023-03-01T01:32:37;3.70;55.80
76293;DHT22;67256;51.154;4.164;2023-03-01T01:35:03;3.70;56.00
76293;DHT22;67256;51.154;4.164;2023-03-01T01:37:28;3.70;55.50
76293;DHT22;67256;51.154;4.164;2023-03-01T01:40:00;3.80;55.30
76293;DHT22;67256;51.154;4.164;2023-03-01T01:42:29;3.90;54.90
76293;DHT22;67256;51.154;4.164;2023-03-01T01:45:30;3.90;54.90
76293;DHT22;67256;51.154;4.164;2023-03-01T01:48:14;3.90;54.90
76293;DHT22;67256;51.154;4.164;2023-03-01T01:50:41;3.80;54.80
76293;DHT22;67256;51.154;4.164;2023-03-01T01:53:13;3.80;55.20
76293;DHT22;67256;51.154;4.164;2023-03-01T01:55:43;3.80;55.10
76293;DHT22;67256;51.154;4.164;2023-03-01T01:58:12;3.80;54.80
76293;DHT22;67256;51.154;4.164;2023-03-01T02:00:39;3.70;55.00
76293;DHT22;67256;51.154;4.164;2023-03-01T02:03:10;3.70;55.30
76293;DHT22;67256;51.154;4.164;2023-03-01T02:08:27;3.60;56.40
76293;DHT22;67256;51.154;4.164;2023-03-01T02:10:54;3.50;56.80
76293;DHT22;67256;51.154;4.164;2023-03-01T02:13:22;3.60;56.20
76293;DHT22;67256;51.154;4.164;2023-03-01T02:15:48;3.60;56.10
76293;DHT22;67256;51.154;4.164;2023-03-01T02:18:17;3.60;56.40
76293;DHT22;67256;51.154;4.164;2023-03-01T02:23:31;3.70;56.20
76293;DHT22;67256;51.154;4.164;2023-03-01T02:28:45;3.60;56.40
76293;DHT22;67256;51.154;4.164;2023-03-01T02:31:14;3.50;56.80
76293;DHT22;67256;51.154;4.164;2023-03-01T02:34:00;3.60;56.70
76293;DHT22;67256;51.154;4.164;2023-03-01T02:36:35;3.50;56.30
76293;DHT22;67256;51.154;4.164;2023-03-01T02:39:04;3.60;57.40
76293;DHT22;67256;51.154;4.164;2023-03-01T02:41:36;3.60;57.20
76293;DHT22;67256;51.154;4.164;2023-03-01T02:44:03;3.60;56.60
76293;DHT22;67256;51.154;4.164;2023-03-01T02:46:29;3.60;57.10
76293;DHT22;67256;51.154;4.164;2023-03-01T02:48:57;3.50;58.00
76293;DHT22;67256;51.154;4.164;2023-03-01T02:56:42;3.50;58.30
76293;DHT22;67256;51.154;4.164;2023-03-01T02:59:09;3.40;59.20
76293;DHT22;67256;51.154;4.164;2023-03-01T03:01:35;3.40;59.30
76293;DHT22;67256;51.154;4.164;2023-03-01T03:04:06;3.30;59.30
76293;DHT22;67256;51.154;4.164;2023-03-01T03:06:32;3.30;59.60
76293;DHT22;67256;51.154;4.164;2023-03-01T03:08:59;3.30;59.90
76293;DHT22;67256;51.154;4.164;2023-03-01T03:11:25;3.30;59.90
76293;DHT22;67256;51.154;4.164;2023-03-01T03:13:50;3.40;59.70
76293;DHT22;67256;51.154;4.164;2023-03-01T03:16:17;3.40;60.20
76293;DHT22;67256;51.154;4.164;2023-03-01T03:18:44;3.20;60.60
76293;DHT22;67256;51.154;4.164;2023-03-01T03:21:11;3.10;61.50
76293;DHT22;67256;51.154;4.164;2023-03-01T03:23:38;3.10;61.30
76293;DHT22;67256;51.154;4.164;2023-03-01T03:26:05;3.10;61.70
76293;DHT22;67256;51.154;4.164;2023-03-01T03:28:32;3.10;61.50
76293;DHT22;67256;51.154;4.164;2023-03-01T03:30:58;3.10;62.00
76293;DHT22;67256;51.154;4.164;2023-03-01T03:33:29;3.00;62.20
76293;DHT22;67256;51.154;4.164;2023-03-01T03:35:55;3.00;62.40
76293;DHT22;67256;51.154;4.164;2023-03-01T03:38:21;2.90;62.60
76293;DHT22;67256;51.154;4.164;2023-03-01T03:40:51;3.00;62.30
76293;DHT22;67256;51.154;4.164;2023-03-01T03:43:22;3.00;62.00
76293;DHT22;67256;51.154;4.164;2023-03-01T03:45:49;3.10;61.80
76293;DHT22;67256;51.154;4.164;2023-03-01T03:48:16;3.20;61.50
76293;DHT22;67256;51.154;4.164;2023-03-01T03:50:48;3.20;61.40
76293;DHT22;67256;51.154;4.164;2023-03-01T03:53:14;3.20;61.40
76293;DHT22;67256;51.154;4.164;2023-03-01T03:55:40;3.20;61.30
76293;DHT22;67256;51.154;4.164;2023-03-01T03:58:10;3.30;61.00
76293;DHT22;67256;51.154;4.164;2023-03-01T04:00:39;3.30;60.80
76293;DHT22;67256;51.154;4.164;2023-03-01T04:03:06;3.30;60.50
76293;DHT22;67256;51.154;4.164;2023-03-01T04:05:33;3.30;60.40
76293;DHT22;67256;51.154;4.164;2023-03-01T04:07:59;3.30;60.60
76293;DHT22;67256;51.154;4.164;2023-03-01T04:10:40;3.30;60.50
76293;DHT22;67256;51.154;4.164;2023-03-01T04:13:08;3.30;60.80
76293;DHT22;67256;51.154;4.164;2023-03-01T04:15:34;3.20;61.10
76293;DHT22;67256;51.154;4.164;2023-03-01T04:18:01;3.20;61.00
76293;DHT22;67256;51.154;4.164;2023-03-01T04:20:30;3.30;61.10
76293;DHT22;67256;51.154;4.164;2023-03-01T04:23:06;3.30;61.10
76293;DHT22;67256;51.154;4.164;2023-03-01T04:25:45;3.20;60.90
76293;DHT22;67256;51.154;4.164;2023-03-01T04:28:11;3.20;60.70
76293;DHT22;67256;51.154;4.164;2023-03-01T04:30:38;3.20;60.50
76293;DHT22;67256;51.154;4.164;2023-03-01T04:33:08;3.10;60.90
76293;DHT22;67256;51.154;4.164;2023-03-01T04:35:36;3.00;61.30
76293;DHT22;67256;51.154;4.164;2023-03-01T04:38:03;3.00;61.60
76293;DHT22;67256;51.154;4.164;2023-03-01T04:40:29;2.80;62.00
76293;DHT22;67256;51.154;4.164;2023-03-01T04:42:55;2.90;61.30
76293;DHT22;67256;51.154;4.164;2023-03-01T04:45:21;3.00;60.80
76293;DHT22;67256;51.154;4.164;2023-03-01T04:47:47;3.00;61.00
76293;DHT22;67256;51.154;4.164;2023-03-01T04:50:17;3.00;60.80
76293;DHT22;67256;51.154;4.164;2023-03-01T04:52:46;3.10;60.90
76293;DHT22;67256;51.154;4.164;2023-03-01T04:55:13;3.10;60.70
76293;DHT22;67256;51.154;4.164;2023-03-01T04:57:39;3.10;60.60
76293;DHT22;67256;51.154;4.164;2023-03-01T05:00:09;3.00;60.80
76293;DHT22;67256;51.154;4.164;2023-03-01T05:02:58;3.10;60.60
76293;DHT22;67256;51.154;4.164;2023-03-01T05:05:33;3.00;60.80
76293;DHT22;67256;51.154;4.164;2023-03-01T05:08:05;2.90;60.90
76293;DHT22;67256;51.154;4.164;2023-03-01T05:10:33;2.90;60.80
76293;DHT22;67256;51.154;4.164;2023-03-01T05:13:01;2.90;60.40
76293;DHT22;67256;51.154;4.164;2023-03-01T05:15:30;3.00;60.40
76293;DHT22;67256;51.154;4.164;2023-03-01T05:17:57;3.00;60.10
76293;DHT22;67256;51.154;4.164;2023-03-01T05:20:28;3.00;59.90
76293;DHT22;67256;51.154;4.164;2023-03-01T05:22:59;3.00;59.80
76293;DHT22;67256;51.154;4.164;2023-03-01T05:25:26;3.00;59.90
76293;DHT22;67256;51.154;4.164;2023-03-01T05:27:52;3.00;59.60
76293;DHT22;67256;51.154;4.164;2023-03-01T05:30:18;3.00;59.80
76293;DHT22;67256;51.154;4.164;2023-03-01T05:32:49;3.00;59.80
76293;DHT22;67256;51.154;4.164;2023-03-01T05:35:21;3.00;59.80
76293;DHT22;67256;51.154;4.164;2023-03-01T05:37:48;3.00;59.70
76293;DHT22;67256;51.154;4.164;2023-03-01T05:40:19;3.00;59.60
76293;DHT22;67256;51.154;4.164;2023-03-01T05:42:47;3.00;59.70
76293;DHT22;67256;51.154;4.164;2023-03-01T05:45:15;2.90;59.80
76293;DHT22;67256;51.154;4.164;2023-03-01T05:47:42;2.90;60.00
76293;DHT22;67256;51.154;4.164;2023-03-01T05:50:12;2.90;59.80
76293;DHT22;67256;51.154;4.164;2023-03-01T05:52:38;2.90;59.50
76293;DHT22;67256;51.154;4.164;2023-03-01T05:55:05;2.90;59.50
76293;DHT22;67256;51.154;4.164;2023-03-01T05:57:31;2.90;59.60
76293;DHT22;67256;51.154;4.164;2023-03-01T05:59:56;2.90;59.70
76293;DHT22;67256;51.154;4.164;2023-03-01T06:02:22;2.90;59.50
76293;DHT22;67256;51.154;4.164;2023-03-01T06:04:48;2.90;59.30
76293;DHT22;67256;51.154;4.164;2023-03-01T06:07:14;2.90;59.60
76293;DHT22;67256;51.154;4.164;2023-03-01T06:09:39;2.90;59.70
76293;DHT22;67256;51.154;4.164;2023-03-01T06:12:05;2.80;59.80
76293;DHT22;67256;51.154;4.164;2023-03-01T06:14:31;2.80;59.70
76293;DHT22;67256;51.154;4.164;2023-03-01T06:16:57;2.80;59.40
76293;DHT22;67256;51.154;4.164;2023-03-01T06:19:23;2.80;59.70
76293;DHT22;67256;51.154;4.164;2023-03-01T06:21:49;2.80;59.50
76293;DHT22;67256;51.154;4.164;2023-03-01T06:24:15;2.80;59.30
76293;DHT22;67256;51.154;4.164;2023-03-01T06:26:41;2.80;59.60
76293;DHT22;67256;51.154;4.164;2023-03-01T06:29:07;2.80;59.90
76293;DHT22;67256;51.154;4.164;2023-03-01T06:31:34;2.80;60.00
76293;DHT22;67256;51.154;4.164;2023-03-01T06:34:00;2.70;59.60
76293;DHT22;67256;51.154;4.164;2023-03-01T06:36:26;2.70;59.60
76293;DHT22;67256;51.154;4.164;2023-03-01T06:38:52;2.60;60.20
76293;DHT22;67256;51.154;4.164;2023-03-01T06:41:17;2.60;59.80
76293;DHT22;67256;51.154;4.164;2023-03-01T06:43:44;2.70;59.70
76293;DHT22;67256;51.154;4.164;2023-03-01T06:46:09;2.70;59.70
76293;DHT22;67256;51.154;4.164;2023-03-01T06:48:35;2.70;60.20
76293;DHT22;67256;51.154;4.164;2023-03-01T06:51:01;2.70;60.40
76293;DHT22;67256;51.154;4.164;2023-03-01T06:53:28;2.70;60.70
76293;DHT22;67256;51.154;4.164;2023-03-01T06:55:57;2.70;60.70
76293;DHT22;67256;51.154;4.164;2023-03-01T06:58:23;2.70;61.20
76293;DHT22;67256;51.154;4.164;2023-03-01T07:00:49;2.70;60.80
76293;DHT22;67256;51.154;4.164;2023-03-01T07:03:14;2.80;60.40
76293;DHT22;67256;51.154;4.164;2023-03-01T07:05:41;2.80;60.70
76293;DHT22;67256;51.154;4.164;2023-03-01T07:08:08;2.70;61.00
76293;DHT22;67256;51.154;4.164;2023-03-01T07:10:33;2.70;61.10
76293;DHT22;67256;51.154;4.164;2023-03-01T07:12:59;2.70;60.90
76293;DHT22;67256;51.154;4.164;2023-03-01T07:15:26;2.70;61.00
76293;DHT22;67256;51.154;4.164;2023-03-01T07:17:52;2.70;60.80
76293;DHT22;67256;51.154;4.164;2023-03-01T07:20:18;2.80;60.70
76293;DHT22;67256;51.154;4.164;2023-03-01T07:22:44;2.90;60.40
76293;DHT22;67256;51.154;4.164;2023-03-01T07:25:10;2.90;60.40
76293;DHT22;67256;51.154;4.164;2023-03-01T07:27:36;2.90;60.20
76293;DHT22;67256;51.154;4.164;2023-03-01T07:30:03;2.70;61.10
76293;DHT22;67256;51.154;4.164;2023-03-01T07:32:29;2.80;61.30
76293;DHT22;67256;51.154;4.164;2023-03-01T07:34:54;2.80;61.40
76293;DHT22;67256;51.154;4.164;2023-03-01T07:37:20;2.90;61.30
76293;DHT22;67256;51.154;4.164;2023-03-01T07:39:46;2.90;61.30
76293;DHT22;67256;51.154;4.164;2023-03-01T07:42:12;2.90;61.40
76293;DHT22;67256;51.154;4.164;2023-03-01T07:44:38;2.90;61.30
76293;DHT22;67256;51.154;4.164;2023-03-01T07:47:04;2.90;61.60
76293;DHT22;67256;51.154;4.164;2023-03-01T07:49:30;2.90;61.50
76293;DHT22;67256;51.154;4.164;2023-03-01T07:51:56;2.90;61.50
76293;DHT22;67256;51.154;4.164;2023-03-01T07:54:22;2.80;61.40
76293;DHT22;67256;51.154;4.164;2023-03-01T07:56:48;2.80;61.90
76293;DHT22;67256;51.154;4.164;2023-03-01T07:59:14;2.70;61.30
76293;DHT22;67256;51.154;4.164;2023-03-01T08:01:40;2.70;61.60
76293;DHT22;67256;51.154;4.164;2023-03-01T08:04:07;2.70;61.30
76293;DHT22;67256;51.154;4.164;2023-03-01T08:06:35;2.70;60.90
76293;DHT22;67256;51.154;4.164;2023-03-01T08:09:01;2.70;61.20
76293;DHT22;67256;51.154;4.164;2023-03-01T08:11:27;2.60;61.40
76293;DHT22;67256;51.154;4.164;2023-03-01T08:13:54;2.60;61.10
76293;DHT22;67256;51.154;4.164;2023-03-01T08:16:20;2.70;60.90
76293;DHT22;67256;51.154;4.164;2023-03-01T08:18:45;2.70;61.00
76293;DHT22;67256;51.154;4.164;2023-03-01T08:21:14;2.70;61.20
76293;DHT22;67256;51.154;4.164;2023-03-01T08:23:41;2.70;61.20
76293;DHT22;67256;51.154;4.164;2023-03-01T08:26:14;2.60;61.30
76293;DHT22;67256;51.154;4.164;2023-03-01T08:28:40;2.60;61.30
76293;DHT22;67256;51.154;4.164;2023-03-01T08:31:30;2.50;61.60
76293;DHT22;67256;51.154;4.164;2023-03-01T08:33:59;2.60;61.50
76293;DHT22;67256;51.154;4.164;2023-03-01T08:36:42;2.60;61.70
76293;DHT22;67256;51.154;4.164;2023-03-01T08:39:10;2.90;61.20
76293;DHT22;67256;51.154;4.164;2023-03-01T08:41:36;3.00;60.20
76293;DHT22;67256;51.154;4.164;2023-03-01T08:44:03;3.00;60.20
76293;DHT22;67256;51.154;4.164;2023-03-01T08:46:32;3.10;59.90
76293;DHT22;67256;51.154;4.164;2023-03-01T08:48:59;3.00;59.20
76293;DHT22;67256;51.154;4.164;2023-03-01T08:51:25;2.90;59.90
76293;DHT22;67256;51.154;4.164;2023-03-01T08:53:51;2.90;59.30
76293;DHT22;67256;51.154;4.164;2023-03-01T08:56:18;2.80;59.50
76293;DHT22;67256;51.154;4.164;2023-03-01T08:58:45;2.70;60.00
76293;DHT22;67256;51.154;4.164;2023-03-01T09:01:13;2.70;59.30
76293;DHT22;67256;51.154;4.164;2023-03-01T09:03:40;2.70;60.20
76293;DHT22;67256;51.154;4.164;2023-03-01T09:06:06;2.70;60.20
76293;DHT22;67256;51.154;4.164;2023-03-01T09:08:40;2.90;60.00
76293;DHT22;67256;51.154;4.164;2023-03-01T09:11:08;3.00;58.90
76293;DHT22;67256;51.154;4.164;2023-03-01T09:13:34;3.00;58.60
76293;DHT22;67256;51.154;4.164;2023-03-01T09:16:06;3.00;59.20
76293;DHT22;67256;51.154;4.164;2023-03-01T09:18:32;3.10;59.40
76293;DHT22;67256;51.154;4.164;2023-03-01T09:21:10;3.20;59.00
76293;DHT22;67256;51.154;4.164;2023-03-01T09:23:40;3.10;58.60
76293;DHT22;67256;51.154;4.164;2023-03-01T09:26:08;3.10;58.10
76293;DHT22;67256;51.154;4.164;2023-03-01T09:28:35;3.20;58.10
76293;DHT22;67256;51.154;4.164;2023-03-01T09:31:02;3.00;58.10
76293;DHT22;67256;51.154;4.164;2023-03-01T09:33:29;3.10;58.50
76293;DHT22;67256;51.154;4.164;2023-03-01T09:36:03;3.10;57.30
76293;DHT22;67256;51.154;4.164;2023-03-01T09:38:30;3.20;57.10
76293;DHT22;67256;51.154;4.164;2023-03-01T09:40:56;3.20;57.30
76293;DHT22;67256;51.154;4.164;2023-03-01T09:46:03;3.00;57.40
76293;DHT22;67256;51.154;4.164;2023-03-01T09:48:55;3.00;57.10
76293;DHT22;67256;51.154;4.164;2023-03-01T09:51:26;3.10;57.40
76293;DHT22;67256;51.154;4.164;2023-03-01T09:53:52;3.20;56.90
76293;DHT22;67256;51.154;4.164;2023-03-01T09:59:19;3.20;56.00
76293;DHT22;67256;51.154;4.164;2023-03-01T10:01:54;3.20;56.30
76293;DHT22;67256;51.154;4.164;2023-03-01T10:08:06;3.30;56.10
76293;DHT22;67256;51.154;4.164;2023-03-01T10:10:44;3.40;55.10
76293;DHT22;67256;51.154;4.164;2023-03-01T10:13:45;3.50;54.70
76293;DHT22;67256;51.154;4.164;2023-03-01T10:16:17;3.50;55.10
76293;DHT22;67256;51.154;4.164;2023-03-01T10:18:49;3.50;55.00
76293;DHT22;67256;51.154;4.164;2023-03-01T10:21:19;3.40;54.00
76293;DHT22;67256;51.154;4.164;2023-03-01T10:23:46;3.40;54.00
76293;DHT22;67256;51.154;4.164;2023-03-01T10:29:11;3.40;54.60
76293;DHT22;67256;51.154;4.164;2023-03-01T10:31:51;3.50;54.60
76293;DHT22;67256;51.154;4.164;2023-03-01T10:34:20;3.50;53.90
76293;DHT22;67256;51.154;4.164;2023-03-01T10:36:51;3.50;54.10
76293;DHT22;67256;51.154;4.164;2023-03-01T10:39:24;3.60;54.00
76293;DHT22;67256;51.154;4.164;2023-03-01T10:42:02;3.60;53.90
76293;DHT22;67256;51.154;4.164;2023-03-01T10:44:48;3.70;54.50
76293;DHT22;67256;51.154;4.164;2023-03-01T10:47:23;3.70;53.00
76293;DHT22;67256;51.154;4.164;2023-03-01T10:49:53;3.70;53.70
76293;DHT22;67256;51.154;4.164;2023-03-01T10:52:22;3.70;53.30
76293;DHT22;67256;51.154;4.164;2023-03-01T10:54:59;3.60;53.70
76293;DHT22;67256;51.154;4.164;2023-03-01T10:57:35;3.50;54.00
76293;DHT22;67256;51.154;4.164;2023-03-01T11:00:24;3.50;53.90
76293;DHT22;67256;51.154;4.164;2023-03-01T11:05:24;3.50;53.90
76293;DHT22;67256;51.154;4.164;2023-03-01T11:07:55;3.60;54.20
76293;DHT22;67256;51.154;4.164;2023-03-01T11:10:28;3.70;53.40
76293;DHT22;67256;51.154;4.164;2023-03-01T11:13:15;3.70;53.30
76293;DHT22;67256;51.154;4.164;2023-03-01T11:15:41;3.80;53.50
76293;DHT22;67256;51.154;4.164;2023-03-01T11:18:23;4.00;53.10
76293;DHT22;67256;51.154;4.164;2023-03-01T11:20:51;4.00;52.90
76293;DHT22;67256;51.154;4.164;2023-03-01T11:23:20;4.00;53.80
76293;DHT22;67256;51.154;4.164;2023-03-01T11:26:01;3.90;54.50
76293;DHT22;67256;51.154;4.164;2023-03-01T11:28:29;3.80;53.60
76293;DHT22;67256;51.154;4.164;2023-03-01T11:31:06;3.80;53.20
76293;DHT22;67256;51.154;4.164;2023-03-01T11:33:44;3.80;53.50
76293;DHT22;67256;51.154;4.164;2023-03-01T11:36:39;3.90;53.80
76293;DHT22;67256;51.154;4.164;2023-03-01T11:42:00;4.00;54.00
76293;DHT22;67256;51.154;4.164;2023-03-01T11:44:30;4.00;53.90
76293;DHT22;67256;51.154;4.164;2023-03-01T12:14:01;4.50;51.80
76293;DHT22;67256;51.154;4.164;2023-03-01T12:16:21;4.50;50.80
76293;DHT22;67256;51.154;4.164;2023-03-01T12:38:41;4.70;50.30
76293;DHT22;67256;51.154;4.164;2023-03-01T12:44:11;4.90;49.90
76293;DHT22;67256;51.154;4.164;2023-03-01T12:49:56;5.00;49.20
76293;DHT22;67256;51.154;4.164;2023-03-01T12:54:57;4.90;50.10
76293;DHT22;67256;51.154;4.164;2023-03-01T12:57:31;4.90;50.40
76293;DHT22;67256;51.154;4.164;2023-03-01T13:03:47;4.90;50.50
76293;DHT22;67256;51.154;4.164;2023-03-01T13:11:56;5.10;49.60
76293;DHT22;67256;51.154;4.164;2023-03-01T13:16:54;5.20;50.10
76293;DHT22;67256;51.154;4.164;2023-03-01T13:19:25;5.30;49.80
76293;DHT22;67256;51.154;4.164;2023-03-01T13:21:53;5.20;49.10
76293;DHT22;67256;51.154;4.164;2023-03-01T13:24:29;5.20;49.40
76293;DHT22;67256;51.154;4.164;2023-03-01T13:30:12;5.10;49.70
76293;DHT22;67256;51.154;4.164;2023-03-01T13:32:38;5.20;49.50
76293;DHT22;67256;51.154;4.164;2023-03-01T13:37:46;5.40;49.40
76293;DHT22;67256;51.154;4.164;2023-03-01T13:42:54;5.40;49.40
76293;DHT22;67256;51.154;4.164;2023-03-01T13:45:34;5.40;49.80
76293;DHT22;67256;51.154;4.164;2023-03-01T13:50:51;5.50;49.00
76293;DHT22;67256;51.154;4.164;2023-03-01T13:53:21;5.40;48.30
76293;DHT22;67256;51.154;4.164;2023-03-01T13:56:09;5.30;48.40
76293;DHT22;67256;51.154;4.164;2023-03-01T14:01:23;5.40;48.90
76293;DHT22;67256;51.154;4.164;2023-03-01T14:03:49;5.40;48.50
76293;DHT22;67256;51.154;4.164;2023-03-01T14:06:19;5.30;48.20
76293;DHT22;67256;51.154;4.164;2023-03-01T14:08:46;5.30;48.20
76293;DHT22;67256;51.154;4.164;2023-03-01T14:19:47;5.40;48.70
76293;DHT22;67256;51.154;4.164;2023-03-01T14:22:23;5.40;48.20
76293;DHT22;67256;51.154;4.164;2023-03-01T14:24:56;5.50;48.00
76293;DHT22;67256;51.154;4.164;2023-03-01T14:27:30;5.50;48.10
76293;DHT22;67256;51.154;4.164;2023-03-01T14:30:01;5.50;47.70
76293;DHT22;67256;51.154;4.164;2023-03-01T14:32:30;5.50;48.40
76293;DHT22;67256;51.154;4.164;2023-03-01T14:34:57;5.60;48.90
76293;DHT22;67256;51.154;4.164;2023-03-01T14:37:34;5.60;47.90
76293;DHT22;67256;51.154;4.164;2023-03-01T14:40:02;5.70;47.90
76293;DHT22;67256;51.154;4.164;2023-03-01T14:42:33;5.70;47.10
76293;DHT22;67256;51.154;4.164;2023-03-01T14:45:00;5.60;47.60
76293;DHT22;67256;51.154;4.164;2023-03-01T14:47:29;5.70;48.30
76293;DHT22;67256;51.154;4.164;2023-03-01T14:50:10;5.70;48.40
76293;DHT22;67256;51.154;4.164;2023-03-01T14:52:44;5.80;47.70
76293;DHT22;67256;51.154;4.164;2023-03-01T14:55:24;5.90;47.60
76293;DHT22;67256;51.154;4.164;2023-03-01T14:57:51;6.00;47.10
76293;DHT22;67256;51.154;4.164;2023-03-01T15:00:28;5.90;47.00
76293;DHT22;67256;51.154;4.164;2023-03-01T15:02:56;5.80;47.40
76293;DHT22;67256;51.154;4.164;2023-03-01T15:05:32;5.80;47.20
76293;DHT22;67256;51.154;4.164;2023-03-01T15:08:02;5.80;47.30
76293;DHT22;67256;51.154;4.164;2023-03-01T15:10:31;5.70;47.10
76293;DHT22;67256;51.154;4.164;2023-03-01T15:13:23;5.80;47.00
76293;DHT22;67256;51.154;4.164;2023-03-01T15:15:51;5.80;46.40
76293;DHT22;67256;51.154;4.164;2023-03-01T15:18:22;5.90;46.70
76293;DHT22;67256;51.154;4.164;2023-03-01T15:20:51;5.90;46.60
76293;DHT22;67256;51.154;4.164;2023-03-01T15:25:49;6.00;46.50
76293;DHT22;67256;51.154;4.164;2023-03-01T15:28:25;5.90;46.90
76293;DHT22;67256;51.154;4.164;2023-03-01T15:33:32;5.90;46.90
76293;DHT22;67256;51.154;4.164;2023-03-01T15:36:00;6.00;47.20
76293;DHT22;67256;51.154;4.164;2023-03-01T15:41:05;6.10;47.00
76293;DHT22;67256;51.154;4.164;2023-03-01T15:46:31;6.10;47.50
76293;DHT22;67256;51.154;4.164;2023-03-01T15:49:05;6.00;47.60
76293;DHT22;67256;51.154;4.164;2023-03-01T15:51:43;5.90;47.90
76293;DHT22;67256;51.154;4.164;2023-03-01T15:54:20;5.90;48.00
76293;DHT22;67256;51.154;4.164;2023-03-01T15:56:47;5.90;48.40
76293;DHT22;67256;51.154;4.164;2023-03-01T15:59:12;5.90;48.30
76293;DHT22;67256;51.154;4.164;2023-03-01T16:01:40;5.90;48.20
76293;DHT22;67256;51.154;4.164;2023-03-01T16:04:06;5.90;48.40
76293;DHT22;67256;51.154;4.164;2023-03-01T16:06:32;5.90;48.30
76293;DHT22;67256;51.154;4.164;2023-03-01T16:08:58;5.90;48.10
76293;DHT22;67256;51.154;4.164;2023-03-01T16:11:23;5.90;48.40
76293;DHT22;67256;51.154;4.164;2023-03-01T16:13:49;6.00;48.20
76293;DHT22;67256;51.154;4.164;2023-03-01T16:16:16;6.00;48.50
76293;DHT22;67256;51.154;4.164;2023-03-01T16:18:44;5.90;48.60
76293;DHT22;67256;51.154;4.164;2023-03-01T16:21:22;6.00;48.20
76293;DHT22;67256;51.154;4.164;2023-03-01T16:23:48;6.10;47.90
76293;DHT22;67256;51.154;4.164;2023-03-01T16:26:14;6.00;48.00
76293;DHT22;67256;51.154;4.164;2023-03-01T16:28:41;6.00;48.30
76293;DHT22;67256;51.154;4.164;2023-03-01T16:31:08;6.10;48.10
76293;DHT22;67256;51.154;4.164;2023-03-01T16:33:34;6.10;48.10
76293;DHT22;67256;51.154;4.164;2023-03-01T16:36:08;6.10;48.10
76293;DHT22;67256;51.154;4.164;2023-03-01T16:38:34;6.10;48.30
76293;DHT22;67256;51.154;4.164;2023-03-01T16:41:00;6.10;48.40
76293;DHT22;67256;51.154;4.164;2023-03-01T16:43:26;6.10;48.70
76293;DHT22;67256;51.154;4.164;2023-03-01T16:45:52;6.00;49.30
76293;DHT22;67256;51.154;4.164;2023-03-01T16:48:18;6.00;49.30
76293;DHT22;67256;51.154;4.164;2023-03-01T16:50:44;6.00;49.60
76293;DHT22;67256;51.154;4.164;2023-03-01T16:53:10;5.90;50.00
76293;DHT22;67256;51.154;4.164;2023-03-01T16:55:36;5.80;50.30
76293;DHT22;67256;51.154;4.164;2023-03-01T16:58:03;5.90;50.00
76293;DHT22;67256;51.154;4.164;2023-03-01T17:00:29;5.90;50.00
76293;DHT22;67256;51.154;4.164;2023-03-01T17:02:55;5.90;50.10
76293;DHT22;67256;51.154;4.164;2023-03-01T17:05:21;6.00;50.10
76293;DHT22;67256;51.154;4.164;2023-03-01T17:07:49;6.00;49.50
76293;DHT22;67256;51.154;4.164;2023-03-01T17:10:14;6.00;49.60
76293;DHT22;67256;51.154;4.164;2023-03-01T17:12:40;5.90;49.50
76293;DHT22;67256;51.154;4.164;2023-03-01T17:15:06;5.80;49.60
76293;DHT22;67256;51.154;4.164;2023-03-01T17:17:32;5.80;49.90
76293;DHT22;67256;51.154;4.164;2023-03-01T17:19:59;5.70;49.80
76293;DHT22;67256;51.154;4.164;2023-03-01T17:22:25;5.70;49.90
76293;DHT22;67256;51.154;4.164;2023-03-01T17:24:51;5.60;50.10
76293;DHT22;67256;51.154;4.164;2023-03-01T17:27:16;5.70;50.10
76293;DHT22;67256;51.154;4.164;2023-03-01T17:29:43;5.70;49.70
76293;DHT22;67256;51.154;4.164;2023-03-01T17:32:08;5.70;49.60
76293;DHT22;67256;51.154;4.164;2023-03-01T17:34:34;5.70;49.60
76293;DHT22;67256;51.154;4.164;2023-03-01T17:37:01;5.70;49.60
76293;DHT22;67256;51.154;4.164;2023-03-01T17:39:27;5.80;50.30
76293;DHT22;67256;51.154;4.164;2023-03-01T17:42:01;5.70;49.80
76293;DHT22;67256;51.154;4.164;2023-03-01T17:44:27;5.80;50.00
76293;DHT22;67256;51.154;4.164;2023-03-01T17:46:52;5.80;49.90
76293;DHT22;67256;51.154;4.164;2023-03-01T17:49:18;5.80;50.00
76293;DHT22;67256;51.154;4.164;2023-03-01T17:51:44;5.70;50.00
76293;DHT22;67256;51.154;4.164;2023-03-01T17:54:10;5.70;50.20
76293;DHT22;67256;51.154;4.164;2023-03-01T17:56:36;5.80;50.00
76293;DHT22;67256;51.154;4.164;2023-03-01T17:59:04;5.70;50.00
76293;DHT22;67256;51.154;4.164;2023-03-01T18:01:30;5.70;50.00
76293;DHT22;67256;51.154;4.164;2023-03-01T18:03:55;5.80;50.00
76293;DHT22;67256;51.154;4.164;2023-03-01T18:06:23;5.70;50.10
76293;DHT22;67256;51.154;4.164;2023-03-01T18:08:50;5.70;50.30